Time;durP1;ratioP1;P1;durP2;ratioP2;P2;SDS_P1;SDS_P2;PMS_P1;PMS_P2;Temp;Humidity;BMP_temperature;BMP_pressure;BME280_temperature;BME280_humidity;BME280_pressure;Samples;Min_cycle;Max_cycle;Signal;HPM_P1;HPM_P2
2022/11/09 00:01:25;;;;;;;61.30;34.10;;;;;;;13.80;60.56;100365.72;5050127;28;20476;-43
2022/11/09 00:03:55;;;;;;;66.60;34.58;;;;;;;13.78;60.72;100365.94;5050051;28;20103;-43
2022/11/09 00:06:22;;;;;;;63.25;33.70;;;;;;;13.78;60.60;100367.78;5050206;28;20036;-46
2022/11/09 00:08:47;;;;;;;54.78;33.05;;;;;;;13.65;61.32;100364.13;5050823;28;20029;-46
2022/11/09 00:11:13;;;;;;;57.75;32.80;;;;;;;13.71;61.17;100375.84;5050858;28;20054;-48
2022/11/09 00:13:40;;;;;;;63.65;33.63;;;;;;;13.60;61.27;100376.47;5050852;28;20025;-46
2022/11/09 00:16:07;;;;;;;61.10;32.38;;;;;;;13.42;61.93;100361.03;5050988;28;20032;-44
2022/11/09 00:18:34;;;;;;;56.83;32.38;;;;;;;13.54;61.15;100375.44;5051556;28;20021;-45
2022/11/09 00:21:08;;;;;;;56.65;31.45;;;;;;;13.41;61.68;100367.44;5054353;28;20027;-45
2022/11/09 00:23:34;;;;;;;52.60;29.40;;;;;;;13.26;62.64;100368.44;5054628;28;20071;-46
2022/11/09 00:26:04;;;;;;;56.65;31.15;;;;;;;13.35;62.28;100369.09;5053989;28;20052;-47
2022/11/09 00:28:30;;;;;;;58.05;31.73;;;;;;;13.38;62.22;100373.19;5054443;28;20033;-45
2022/11/09 00:30:59;;;;;;;51.90;31.15;;;;;;;13.24;62.59;100370.50;5054471;28;20025;-44
2022/11/09 00:33:25;;;;;;;47.00;28.00;;;;;;;12.84;64.08;100370.44;5054359;28;20025;-44
2022/11/09 00:35:50;;;;;;;46.00;27.27;;;;;;;13.24;63.08;100367.81;5054239;28;20032;-43
2022/11/09 00:38:15;;;;;;;45.92;27.00;;;;;;;13.27;62.82;100375.44;5054283;28;20028;-44
2022/11/09 00:40:41;;;;;;;51.80;27.45;;;;;;;13.14;63.34;100362.06;5054017;28;20381;-43
2022/11/09 00:43:06;;;;;;;48.30;28.35;;;;;;;13.12;63.31;100358.78;5053883;28;20029;-43
2022/11/09 00:45:32;;;;;;;43.60;28.02;;;;;;;13.20;63.03;100368.44;5053843;28;20029;-44
2022/11/09 00:47:57;;;;;;;53.30;30.77;;;;;;;13.12;63.46;100364.13;5054474;28;20463;-44
2022/11/09 00:50:22;;;;;;;65.07;38.88;;;;;;;13.21;63.35;100365.56;5053752;28;20630;-46
2022/11/09 00:52:48;;;;;;;71.03;40.45;;;;;;;13.11;63.16;100371.28;5053145;28;20037;-43
2022/11/09 00:55:14;;;;;;;67.97;41.55;;;;;;;12.81;64.55;100368.22;5053607;28;20017;-44
2022/11/09 00:57:39;;;;;;;71.78;41.40;;;;;;;12.76;64.35;100364.50;5053649;28;20401;-44
2022/11/09 01:00:05;;;;;;;70.60;39.78;;;;;;;12.84;64.07;100369.63;5053401;28;20024;-45
2022/11/09 01:02:30;;;;;;;71.32;40.90;;;;;;;12.87;64.03;100363.88;5053138;28;20457;-44
2022/11/09 01:04:56;;;;;;;62.40;35.40;;;;;;;13.09;62.93;100370.69;5053719;28;20024;-44
2022/11/09 01:07:21;;;;;;;60.35;35.78;;;;;;;12.97;63.04;100364.31;5053412;28;20029;-44
2022/11/09 01:09:47;;;;;;;60.45;36.45;;;;;;;13.06;62.63;100365.75;5053591;28;20040;-45
2022/11/09 01:12:12;;;;;;;62.72;36.03;;;;;;;13.11;62.34;100367.81;5053701;28;20028;-46
2022/11/09 01:14:37;;;;;;;62.97;37.10;;;;;;;12.91;63.19;100367.81;5053635;28;20443;-45
2022/11/09 01:17:03;;;;;;;56.00;32.40;;;;;;;12.96;62.69;100361.84;5053284;28;20436;-44
2022/11/09 01:19:28;;;;;;;56.92;30.67;;;;;;;12.84;62.93;100365.13;5053429;28;20079;-44
2022/11/09 01:21:54;;;;;;;50.40;30.27;;;;;;;12.88;62.15;100353.00;5053531;28;20025;-44
2022/11/09 01:24:19;;;;;;;55.63;30.27;;;;;;;12.86;62.52;100363.06;5053139;28;20061;-45
2022/11/09 01:26:44;;;;;;;53.42;31.40;;;;;;;12.81;62.58;100359.34;5053115;28;20382;-48
2022/11/09 01:29:10;;;;;;;53.15;31.17;;;;;;;12.80;62.61;100360.38;5053132;28;20059;-45
2022/11/09 01:31:35;;;;;;;54.08;31.55;;;;;;;12.78;62.38;100357.09;5052496;28;20020;-43
2022/11/09 01:34:01;;;;;;;53.30;30.60;;;;;;;12.61;63.08;100362.81;5053135;28;20379;-43
2022/11/09 01:36:26;;;;;;;55.42;30.95;;;;;;;12.62;62.94;100364.47;5053147;28;20021;-44
2022/11/09 01:38:52;;;;;;;53.08;31.13;;;;;;;12.58;62.95;100349.84;5053060;28;20453;-43
2022/11/09 01:41:21;;;;;;;53.60;30.77;;;;;;;12.59;63.04;100359.53;5053346;28;20041;-43
2022/11/09 01:44:03;;;;;;;;;;;;;;;12.74;62.65;100351.34;5053494;28;20040;-44
2022/11/09 01:46:39;;;;;;;49.88;29.67;;;;;;;12.55;63.35;100352.13;5052840;28;19913;-44
2022/11/09 01:49:13;;;;;;;57.67;30.60;;;;;;;12.58;63.44;100349.03;5053055;28;20032;-44
2022/11/09 01:51:51;;;;;;;53.83;30.55;;;;;;;12.56;62.79;100351.91;5052698;28;20457;-43
2022/11/09 01:54:21;;;;;;;55.45;31.65;;;;;;;12.57;63.29;100355.41;5052700;28;20115;-43
2022/11/09 01:56:50;;;;;;;53.70;31.33;;;;;;;12.43;63.53;100355.38;5052607;28;20021;-43
2022/11/09 01:59:21;;;;;;;56.03;30.85;;;;;;;12.18;64.38;100356.91;5052847;28;20021;-44
2022/11/09 02:01:47;;;;;;;53.10;30.00;;;;;;;12.13;64.81;100352.19;5052772;28;20033;-44
2022/11/09 02:04:19;;;;;;;54.38;30.42;;;;;;;12.19;64.69;100359.38;5052591;28;20129;-44
2022/11/09 02:06:45;;;;;;;53.60;30.13;;;;;;;12.10;65.00;100360.56;5051776;28;20031;-44
2022/11/09 02:09:40;;;;;;;52.50;29.80;;;;;;;12.26;64.40;100359.41;5052238;28;20024;-43
2022/11/09 02:12:06;;;;;;;50.72;30.98;;;;;;;12.32;63.44;100351.44;5052548;28;20016;-44
2022/11/09 02:14:34;;;;;;;56.03;30.55;;;;;;;12.26;63.88;100367.41;5052418;28;20052;-44
2022/11/09 02:17:00;;;;;;;51.53;30.00;;;;;;;12.31;63.95;100368.44;5052301;28;20043;-44
2022/11/09 02:19:25;;;;;;;56.05;31.88;;;;;;;12.05;64.87;100376.34;5052132;28;20459;-44
2022/11/09 02:21:51;;;;;;;49.35;30.17;;;;;;;12.24;63.73;100359.63;5051912;28;20040;-43
2022/11/09 02:24:17;;;;;;;53.05;30.33;;;;;;;12.39;63.46;100353.28;5051790;28;20497;-44
2022/11/09 02:26:48;;;;;;;54.90;30.95;;;;;;;12.38;62.88;100352.47;5052210;28;20024;-44
2022/11/09 02:29:19;;;;;;;50.88;30.05;;;;;;;12.37;63.05;100358.81;5051960;28;20021;-44
2022/11/09 02:31:53;;;;;;;52.38;30.55;;;;;;;12.36;63.37;100364.38;5052314;28;20028;-44
2022/11/09 02:34:20;;;;;;;58.10;31.92;;;;;;;12.28;63.62;100386.72;5051974;28;20040;-43
2022/11/09 02:36:45;;;;;;;52.28;30.98;;;;;;;12.19;63.55;100379.91;5052064;28;20407;-43
2022/11/09 02:39:15;;;;;;;52.60;29.88;;;;;;;11.71;64.55;100354.00;5051966;28;20031;-44
2022/11/09 02:41:58;;;;;;;56.15;30.85;;;;;;;11.92;64.82;100382.44;5051627;28;20465;-44
2022/11/09 02:44:24;;;;;;;54.50;30.63;;;;;;;11.80;64.68;100383.97;5052116;28;20033;-44
2022/11/09 02:46:50;;;;;;;54.00;30.65;;;;;;;11.89;65.15;100385.47;5051385;28;20427;-45
2022/11/09 02:49:16;;;;;;;52.10;29.80;;;;;;;11.95;64.52;100382.03;5051746;28;20028;-45
2022/11/09 02:51:41;;;;;;;55.17;30.10;;;;;;;12.03;64.05;100384.56;5051283;28;20024;-44
2022/11/09 02:54:07;;;;;;;53.80;31.75;;;;;;;11.97;64.71;100389.84;5050832;28;20059;-44
2022/11/09 02:56:32;;;;;;;49.45;28.75;;;;;;;11.86;65.15;100381.34;5051611;28;20485;-43
2022/11/09 02:58:58;;;;;;;50.72;30.35;;;;;;;11.93;64.61;100387.56;5051613;28;20029;-45
2022/11/09 03:01:23;;;;;;;56.13;31.27;;;;;;;11.77;65.37;100384.38;5052051;28;20027;-43
2022/11/09 03:03:49;;;;;;;60.42;31.95;;;;;;;11.71;64.50;100386.81;5051380;28;20430;-45
2022/11/09 03:06:14;;;;;;;57.50;31.30;;;;;;;11.82;64.95;100387.25;5051212;28;20033;-44
2022/11/09 03:08:40;;;;;;;54.72;31.80;;;;;;;11.65;64.92;100384.91;5051414;28;20087;-46
2022/11/09 03:11:05;;;;;;;53.35;32.15;;;;;;;11.52;65.78;100390.97;5051158;28;20470;-43
2022/11/09 03:13:32;;;;;;;60.97;32.17;;;;;;;11.62;65.07;100398.63;5051063;28;20042;-44
2022/11/09 03:16:02;;;;;;;60.45;33.50;;;;;;;11.35;66.78;100389.63;5051268;28;20024;-50
2022/11/09 03:18:27;;;;;;;57.70;32.40;;;;;;;11.35;67.56;100386.94;5050905;28;20025;-43
2022/11/09 03:20:52;;;;;;;53.85;31.27;;;;;;;11.44;66.07;100385.78;5051118;28;20158;-44
2022/11/09 03:23:18;;;;;;;56.53;31.30;;;;;;;11.62;65.14;100389.81;5050938;28;20056;-44
2022/11/09 03:25:43;;;;;;;61.72;31.80;;;;;;;11.73;64.88;100390.09;5049933;28;20052;-44
2022/11/09 03:28:09;;;;;;;56.20;30.85;;;;;;;11.52;65.19;100390.16;5051096;28;20032;-44
2022/11/09 03:30:34;;;;;;;50.42;29.98;;;;;;;11.61;65.21;100394.31;5050813;28;20374;-44
2022/11/09 03:33:02;;;;;;;51.35;29.52;;;;;;;11.49;65.62;100391.34;5050772;28;20060;-44
2022/11/09 03:35:27;;;;;;;51.20;29.25;;;;;;;11.72;64.59;100399.09;5051240;28;20029;-44
2022/11/09 03:37:53;;;;;;;59.88;31.40;;;;;;;11.72;65.02;100398.28;5050923;28;20047;-44
2022/11/09 03:40:19;;;;;;;60.33;32.15;;;;;;;11.73;64.68;100394.59;5050951;28;20052;-45
2022/11/09 03:42:46;;;;;;;57.60;32.22;;;;;;;11.64;64.91;100369.94;5051042;28;20028;-43
2022/11/09 03:45:13;;;;;;;58.92;32.67;;;;;;;11.72;64.52;100398.28;5050877;28;20029;-44
2022/11/09 03:47:42;;;;;;;62.47;32.33;;;;;;;11.61;65.00;100398.81;5050721;28;20036;-44
2022/11/09 03:50:08;;;;;;;56.65;32.45;;;;;;;11.47;65.21;100401.38;5058811;28;20480;-43
2022/11/09 03:52:34;;;;;;;60.03;33.95;;;;;;;11.50;65.85;100401.00;5070144;28;20536;-44
2022/11/09 03:55:00;;;;;;;58.13;32.25;;;;;;;11.34;66.04;100390.63;5077105;28;20443;-43
2022/11/09 03:57:25;;;;;;;60.95;33.08;;;;;;;11.23;66.51;100393.81;5062585;28;20048;-43
2022/11/09 03:59:51;;;;;;;55.33;33.22;;;;;;;11.27;66.80;100387.06;5057628;28;20020;-42
2022/11/09 04:02:16;;;;;;;62.05;32.42;;;;;;;11.42;66.42;100392.31;5057591;28;20040;-43
2022/11/09 04:04:41;;;;;;;56.70;31.63;;;;;;;11.39;66.17;100396.19;5056962;28;20029;-43
2022/11/09 04:07:09;;;;;;;65.25;33.63;;;;;;;11.44;66.18;100388.47;5057094;28;20449;-43
2022/11/09 04:09:35;;;;;;;58.40;34.50;;;;;;;11.34;66.95;100398.59;5057175;28;20028;-44
2022/11/09 04:12:00;;;;;;;80.80;42.30;;;;;;;11.50;65.62;100389.53;5057157;28;20025;-43
2022/11/09 04:14:25;;;;;;;94.25;51.28;;;;;;;11.44;65.98;100391.13;5057029;28;20097;-46
2022/11/09 04:16:51;;;;;;;74.60;41.65;;;;;;;11.45;65.18;100394.59;5057209;28;20391;-43
2022/11/09 04:19:16;;;;;;;62.65;34.22;;;;;;;11.37;65.37;100398.25;5057182;28;20036;-43
2022/11/09 04:21:42;;;;;;;60.25;32.80;;;;;;;11.42;64.70;100390.47;5055240;28;20442;-44
2022/11/09 04:24:07;;;;;;;55.25;31.70;;;;;;;11.44;64.58;100391.13;5056395;28;20052;-44
2022/11/09 04:26:33;;;;;;;60.50;32.08;;;;;;;11.40;65.84;100399.69;5060008;28;20023;-44
2022/11/09 04:28:58;;;;;;;58.92;32.33;;;;;;;11.40;65.66;100394.34;5057349;28;20096;-44
2022/11/09 04:31:24;;;;;;;55.78;32.35;;;;;;;11.23;65.16;100386.66;5057131;28;20454;-45
2022/11/09 04:33:50;;;;;;;65.13;34.00;;;;;;;11.27;65.63;100387.91;5057370;28;20108;-43
2022/11/09 04:36:16;;;;;;;56.65;31.70;;;;;;;11.18;66.11;100391.72;5056556;28;20017;-44
2022/11/09 04:38:41;;;;;;;60.67;32.65;;;;;;;10.87;66.82;100389.38;5055727;28;20499;-45
2022/11/09 04:41:07;;;;;;;58.42;33.38;;;;;;;10.80;67.25;100391.16;5055840;28;20028;-45
2022/11/09 04:43:33;;;;;;;58.35;33.35;;;;;;;10.83;68.09;100393.41;5055835;28;20504;-42
2022/11/09 04:46:02;;;;;;;59.30;32.53;;;;;;;11.12;66.52;100397.81;5055691;28;20116;-44
2022/11/09 04:48:29;;;;;;;57.97;31.98;;;;;;;11.04;67.34;100392.59;5055526;28;20094;-44
2022/11/09 04:51:06;;;;;;;62.13;33.15;;;;;;;11.14;67.17;100395.78;5055585;28;20029;-45
2022/11/09 04:53:32;;;;;;;59.92;34.05;;;;;;;11.00;66.46;100378.03;5056626;28;20016;-44
2022/11/09 04:55:58;;;;;;;70.97;36.00;;;;;;;11.02;67.10;100400.78;5056492;28;20071;-44
2022/11/09 04:58:24;;;;;;;64.30;33.45;;;;;;;11.22;66.29;100400.97;5056737;28;20025;-44
2022/11/09 05:00:49;;;;;;;56.15;31.88;;;;;;;11.30;67.46;100403.50;5056883;28;20056;-44
2022/11/09 05:03:15;;;;;;;60.65;30.83;;;;;;;11.40;66.18;100408.50;5056812;28;20086;-43
2022/11/09 05:05:41;;;;;;;54.65;32.45;;;;;;;11.39;66.15;100406.88;5054159;28;20021;-43
2022/11/09 05:08:07;;;;;;;58.42;33.33;;;;;;;11.47;65.93;100409.38;5053217;28;20099;-43
2022/11/09 05:10:34;;;;;;;58.03;33.30;;;;;;;11.65;64.51;100405.41;5053483;28;20439;-43
2022/11/09 05:13:01;;;;;;;68.88;36.67;;;;;;;11.58;65.40;100415.22;5053023;28;20053;-44
2022/11/09 05:15:26;;;;;;;66.60;37.17;;;;;;;11.76;64.95;100415.53;5053527;28;20083;-45
2022/11/09 05:17:52;;;;;;;62.75;33.53;;;;;;;11.69;64.55;100412.00;5053230;28;20422;-44
2022/11/09 05:20:18;;;;;;;59.33;33.00;;;;;;;11.90;63.52;100414.66;5052879;28;20032;-44
2022/11/09 05:25:27;;;;;;;65.82;32.85;;;;;;;11.66;66.03;100418.53;5046445;28;20509;-44
2022/11/09 05:27:52;;;;;;;60.28;32.47;;;;;;;11.50;65.51;100419.66;5033907;28;20025;-44
2022/11/09 05:30:19;;;;;;;57.13;32.92;;;;;;;11.63;65.78;100424.28;5033154;28;20022;-43
2022/11/09 05:32:44;;;;;;;64.43;33.53;;;;;;;11.66;65.70;100429.22;5037793;28;20045;-45
2022/11/09 05:35:10;;;;;;;56.30;33.20;;;;;;;11.50;66.39;100426.84;5052719;28;20063;-44
2022/11/09 05:37:37;;;;;;;66.95;33.40;;;;;;;11.64;64.93;100430.44;5053121;28;20024;-44
2022/11/09 05:40:03;;;;;;;63.03;32.28;;;;;;;11.63;65.44;100426.94;5052842;28;20025;-44
2022/11/09 05:42:28;;;;;;;56.83;33.00;;;;;;;11.70;64.52;100433.13;5052499;28;20108;-43
2022/11/09 05:44:54;;;;;;;66.25;34.20;;;;;;;11.70;64.62;100437.66;5052238;28;20107;-44
2022/11/09 05:47:20;;;;;;;56.17;31.60;;;;;;;11.56;65.41;100439.41;5050666;28;20029;-45
2022/11/09 05:49:45;;;;;;;56.65;32.55;;;;;;;11.54;65.54;100436.91;5052474;28;20029;-44
2022/11/09 05:52:11;;;;;;;59.65;32.55;;;;;;;11.68;64.44;100434.34;5051405;28;20532;-44
2022/11/09 05:54:37;;;;;;;66.60;33.72;;;;;;;11.67;65.83;100446.03;5050913;28;20017;-44
2022/11/09 05:57:02;;;;;;;59.08;32.55;;;;;;;11.84;64.62;100443.91;5051216;28;20028;-44
2022/11/09 05:59:27;;;;;;;56.10;33.15;;;;;;;11.92;64.92;100454.47;5051396;28;20035;-44
2022/11/09 06:01:53;;;;;;;56.83;32.72;;;;;;;11.91;65.05;100450.13;5051732;28;20021;-44
2022/11/09 06:04:18;;;;;;;60.90;32.78;;;;;;;11.95;65.20;100458.56;5052367;28;20021;-43
2022/11/09 06:06:44;;;;;;;61.92;34.15;;;;;;;11.96;65.58;100457.56;5052333;28;20025;-43
2022/11/09 06:09:09;;;;;;;59.78;34.17;;;;;;;12.03;65.02;100455.75;5052144;28;20107;-43
2022/11/09 06:11:34;;;;;;;62.85;33.53;;;;;;;12.08;65.59;100461.31;5051555;28;20025;-44
2022/11/09 06:14:00;;;;;;;59.67;32.53;;;;;;;12.18;64.48;100464.44;5051802;28;20017;-44
2022/11/09 06:16:25;;;;;;;65.97;34.13;;;;;;;12.25;65.07;100467.19;5050823;28;20016;-44
2022/11/09 06:18:51;;;;;;;63.05;33.60;;;;;;;11.65;67.02;100469.38;5051808;28;20025;-44
2022/11/09 06:21:16;;;;;;;63.25;33.90;;;;;;;11.82;67.11;100478.78;5051225;28;20227;-43
2022/11/09 06:23:42;;;;;;;58.95;32.80;;;;;;;12.24;64.93;100473.53;5050988;28;20445;-43
2022/11/09 06:26:09;;;;;;;66.38;34.53;;;;;;;12.38;64.59;100479.78;5051256;28;20025;-44
2022/11/09 06:28:36;;;;;;;64.22;33.70;;;;;;;12.57;64.41;100467.56;5051210;28;20059;-44
2022/11/09 06:31:04;;;;;;;66.15;34.35;;;;;;;12.63;63.66;100472.09;5051510;28;20028;-44
2022/11/09 06:33:30;;;;;;;61.53;33.60;;;;;;;12.64;64.01;100476.38;5051587;28;20059;-44
2022/11/09 06:35:57;;;;;;;56.30;33.97;;;;;;;12.45;64.45;100469.94;5051244;28;20025;-45
2022/11/09 06:38:25;;;;;;;63.17;33.83;;;;;;;12.43;64.84;100475.50;5051112;28;20143;-44
2022/11/09 06:40:54;;;;;;;63.25;33.58;;;;;;;12.50;63.96;100465.66;5050781;28;20056;-44
2022/11/09 06:43:20;;;;;;;66.82;33.75;;;;;;;12.49;63.93;100466.69;5051081;28;20428;-43
2022/11/09 06:45:45;;;;;;;66.72;33.08;;;;;;;12.56;64.24;100461.38;5051447;28;20032;-45
2022/11/09 06:48:11;;;;;;;61.55;33.13;;;;;;;12.60;64.28;100461.78;5051064;28;20162;-44
2022/11/09 06:50:37;;;;;;;59.53;33.03;;;;;;;13.06;63.00;100464.63;5051019;28;20185;-43
2022/11/09 06:53:05;;;;;;;58.85;31.35;;;;;;;13.56;61.99;100466.97;5050699;28;20025;-44
2022/11/09 06:55:33;;;;;;;65.28;32.28;;;;;;;13.83;60.39;100441.03;5050809;28;20025;-43
2022/11/09 06:57:59;;;;;;;56.20;31.98;;;;;;;14.17;60.94;100462.41;5051367;28;20051;-44
2022/11/09 07:00:26;;;;;;;58.80;31.48;;;;;;;13.47;62.24;100458.31;5051153;28;20025;-44
2022/11/09 07:02:52;;;;;;;64.40;30.80;;;;;;;14.39;59.58;100463.78;5051223;28;20116;-44
2022/11/09 07:05:18;;;;;;;62.20;31.65;;;;;;;14.89;57.74;100456.97;5050898;28;20111;-43
2022/11/09 07:07:43;;;;;;;64.30;33.13;;;;;;;15.03;57.12;100463.94;5050503;28;20017;-44
2022/11/09 07:10:09;;;;;;;57.15;30.77;;;;;;;15.19;57.14;100459.91;5050658;28;20039;-44
2022/11/09 07:12:35;;;;;;;61.25;31.58;;;;;;;15.61;55.70;100462.88;5050619;28;20481;-44
2022/11/09 07:15:01;;;;;;;59.22;30.77;;;;;;;15.87;56.21;100461.88;5050674;28;20032;-44
2022/11/09 07:17:32;;;;;;;53.67;29.27;;;;;;;16.03;58.10;100464.00;5050735;28;20025;-44
2022/11/09 07:19:58;;;;;;;52.42;30.13;;;;;;;16.22;55.94;100467.53;5051073;28;20031;-44
2022/11/09 07:22:23;;;;;;;64.55;31.05;;;;;;;16.64;52.98;100458.78;5050867;28;20108;-44
2022/11/09 07:24:49;;;;;;;58.63;30.70;;;;;;;16.99;51.57;100458.94;5050327;28;20049;-45
2022/11/09 07:27:15;;;;;;;55.40;32.20;;;;;;;17.05;51.66;100462.59;5049660;28;20041;-45
2022/11/09 07:29:40;;;;;;;65.82;32.65;;;;;;;17.07;51.28;100457.00;5049437;28;20484;-42
2022/11/09 07:32:06;;;;;;;56.88;33.63;;;;;;;17.05;50.85;100459.91;5050056;28;20021;-44
2022/11/09 07:34:31;;;;;;;62.10;33.30;;;;;;;17.10;51.46;100460.03;5049747;28;20441;-45
2022/11/09 07:36:57;;;;;;;60.35;33.88;;;;;;;17.27;50.84;100454.00;5050328;28;20073;-44
2022/11/09 07:39:22;;;;;;;63.58;33.58;;;;;;;17.22;51.51;100456.56;5050084;28;20102;-43
2022/11/09 07:41:48;;;;;;;56.33;32.88;;;;;;;17.49;52.09;100459.66;5050286;28;20345;-43
2022/11/09 07:44:17;;;;;;;59.97;33.08;;;;;;;17.86;51.10;100462.16;5049348;28;20089;-43
2022/11/09 07:46:49;;;;;;;62.60;34.83;;;;;;;18.12;50.46;100466.25;5049400;28;20078;-45
2022/11/09 07:49:16;;;;;;;53.72;34.50;;;;;;;18.47;48.78;100468.09;5049438;28;20075;-44
2022/11/09 07:51:41;;;;;;;61.50;33.60;;;;;;;18.73;48.57;100464.84;5049352;28;20029;-44
2022/11/09 07:54:08;;;;;;;50.13;32.83;;;;;;;18.86;48.46;100468.34;5049451;28;20086;-44
2022/11/09 07:56:33;;;;;;;56.72;33.78;;;;;;;19.20;48.49;100466.53;5049394;28;20045;-45
2022/11/09 07:58:59;;;;;;;55.60;32.22;;;;;;;19.54;47.17;100471.97;5049293;28;20083;-43
2022/11/09 08:01:24;;;;;;;57.75;33.17;;;;;;;19.32;46.73;100461.91;5049216;28;20221;-44
2022/11/09 08:03:52;;;;;;;51.58;32.05;;;;;;;19.57;46.67;100465.25;5049547;28;20028;-43
2022/11/09 08:06:17;;;;;;;53.67;32.45;;;;;;;20.05;46.34;100463.88;5046887;28;20051;-45
2022/11/09 08:08:42;;;;;;;57.22;33.40;;;;;;;20.13;44.47;100449.94;5035386;28;20075;-44
2022/11/09 08:11:08;;;;;;;48.08;31.85;;;;;;;20.29;45.27;100473.38;5049988;28;20028;-44
2022/11/09 08:13:33;;;;;;;58.03;32.00;;;;;;;20.36;44.81;100466.97;5050067;28;20112;-45
2022/11/09 08:16:02;;;;;;;53.45;33.05;;;;;;;20.03;45.14;100468.69;5049597;28;20017;-48
2022/11/09 08:18:28;;;;;;;51.47;31.98;;;;;;;20.42;44.90;100468.66;5049560;28;20127;-45
2022/11/09 08:20:53;;;;;;;51.10;32.30;;;;;;;20.24;44.76;100467.91;5049249;28;20107;-43
2022/11/09 08:23:20;;;;;;;56.75;33.08;;;;;;;20.46;44.18;100467.09;5049420;28;20476;-43
2022/11/09 08:25:46;;;;;;;51.03;32.35;;;;;;;20.62;43.64;100468.97;5048876;28;20572;-44
2022/11/09 08:28:14;;;;;;;49.58;31.73;;;;;;;20.99;43.46;100470.97;5048267;28;20117;-45
2022/11/09 08:30:41;;;;;;;53.28;32.35;;;;;;;21.26;43.27;100465.53;5049183;28;20029;-42
2022/11/09 08:33:06;;;;;;;46.33;30.73;;;;;;;21.27;42.80;100466.38;5049621;28;20020;-45
2022/11/09 08:35:32;;;;;;;50.92;31.90;;;;;;;21.19;42.90;100470.38;5050129;28;20392;-44
2022/11/09 08:38:01;;;;;;;51.45;31.45;;;;;;;21.26;42.11;100472.84;5050251;28;20094;-43
2022/11/09 08:40:26;;;;;;;51.15;32.33;;;;;;;21.61;41.08;100453.41;5051998;28;20458;-44
2022/11/09 08:42:52;;;;;;;53.15;33.58;;;;;;;21.45;41.80;100465.19;5053101;28;20033;-44
2022/11/09 08:45:18;;;;;;;53.85;33.58;;;;;;;20.95;42.29;100469.84;5053434;28;20021;-44
2022/11/09 08:47:44;;;;;;;50.95;33.55;;;;;;;20.98;43.00;100463.94;5053364;28;20036;-46
2022/11/09 08:50:12;;;;;;;53.60;32.85;;;;;;;21.09;43.08;100462.97;5053484;28;20032;-44
2022/11/09 08:52:37;;;;;;;47.00;32.47;;;;;;;21.31;42.06;100462.09;5051617;28;20032;-45
2022/11/09 08:55:04;;;;;;;45.20;30.95;;;;;;;21.69;41.71;100452.13;5053325;28;20031;-43
2022/11/09 08:57:30;;;;;;;47.20;32.08;;;;;;;22.15;40.41;100463.25;5052838;28;20393;-43
2022/11/09 08:59:55;;;;;;;52.55;31.50;;;;;;;22.00;40.77;100455.84;5053059;28;20029;-43
2022/11/09 09:02:21;;;;;;;52.25;30.67;;;;;;;21.72;41.76;100457.00;5052983;28;20458;-44
2022/11/09 09:04:46;;;;;;;47.78;30.90;;;;;;;21.59;42.26;100454.75;5052643;28;20071;-42
2022/11/09 09:07:13;;;;;;;49.35;31.10;;;;;;;21.90;41.14;100457.69;5053068;28;20453;-43
2022/11/09 09:09:38;;;;;;;46.90;30.23;;;;;;;22.24;40.78;100458.16;5053085;28;20185;-42
2022/11/09 09:12:06;;;;;;;52.15;30.02;;;;;;;22.58;39.25;100457.75;5053058;28;20105;-43
2022/11/09 09:14:32;;;;;;;41.70;28.58;;;;;;;22.30;39.53;100453.59;5053090;28;20028;-42
2022/11/09 09:16:57;;;;;;;42.80;27.27;;;;;;;22.58;39.58;100455.03;5053038;28;20620;-43
2022/11/09 09:19:22;;;;;;;39.58;28.17;;;;;;;22.31;39.95;100457.91;5052828;28;20536;-44
2022/11/09 09:21:48;;;;;;;43.30;28.33;;;;;;;22.86;39.21;100448.34;5052938;28;20536;-43
2022/11/09 09:24:13;;;;;;;41.30;28.05;;;;;;;22.81;39.44;100448.34;5052301;28;20063;-44
2022/11/09 09:26:39;;;;;;;41.40;27.80;;;;;;;22.34;39.80;100443.84;5052997;28;20044;-42
2022/11/09 09:29:04;;;;;;;47.95;27.70;;;;;;;22.03;39.90;100427.41;5052469;28;20025;-44
2022/11/09 09:31:29;;;;;;;47.75;27.83;;;;;;;21.87;41.05;100431.91;5052307;28;20479;-44
2022/11/09 09:33:55;;;;;;;42.67;28.00;;;;;;;22.09;40.38;100429.06;5052498;28;20032;-44
2022/11/09 09:36:23;;;;;;;41.28;26.88;;;;;;;22.20;39.13;100433.47;5052590;28;20055;-44
2022/11/09 09:38:54;;;;;;;38.95;24.95;;;;;;;22.02;39.38;100433.91;5052438;28;20048;-44
2022/11/09 09:41:58;;;;;;;41.13;26.92;;;;;;;22.03;40.32;100430.13;5052190;28;20112;-43
2022/11/09 09:44:36;;;;;;;44.72;26.55;;;;;;;21.76;40.06;100425.63;5052356;28;20067;-42
2022/11/09 09:47:23;;;;;;;38.40;25.67;;;;;;;21.60;40.04;100421.19;5052767;28;20574;-43
2022/11/09 09:49:55;;;;;;;39.20;24.65;;;;;;;21.36;41.27;100415.28;5052483;28;20446;-45
2022/11/09 09:52:43;;;;;;;35.67;24.88;;;;;;;21.70;40.40;100405.00;5051451;28;20060;-44
2022/11/09 09:55:30;;;;;;;35.75;24.52;;;;;;;21.86;39.98;100404.00;5052213;28;20028;-43
2022/11/09 09:58:05;;;;;;;40.67;26.00;;;;;;;21.62;40.15;100394.66;5051968;28;20055;-43
2022/11/09 10:00:32;;;;;;;46.10;27.02;;;;;;;21.65;40.70;100391.44;5052056;28;20121;-42
2022/11/09 10:02:59;;;;;;;39.10;25.05;;;;;;;22.01;39.71;100394.34;5051822;28;20462;-43
2022/11/09 10:05:36;;;;;;;45.83;25.50;;;;;;;20.99;41.90;100406.03;5051980;28;20546;-43
2022/11/09 10:08:19;;;;;;;39.45;26.73;;;;;;;20.62;42.51;100395.13;5052115;28;20036;-43
2022/11/09 10:11:05;;;;;;;35.78;25.23;;;;;;;19.84;44.22;100398.75;5051833;28;20025;-42
2022/11/09 10:13:36;;;;;;;38.75;24.75;;;;;;;20.65;42.97;100389.22;5040295;28;20037;-43
2022/11/09 10:16:09;;;;;;;38.05;25.05;;;;;;;21.28;41.39;100386.78;5050897;28;20157;-43
2022/11/09 10:19:00;;;;;;;37.47;25.65;;;;;;;20.75;42.20;100381.19;5051508;28;20020;-43
2022/11/09 10:21:47;;;;;;;40.13;24.73;;;;;;;21.34;42.59;100383.06;5051496;28;20032;-43
2022/11/09 10:24:15;;;;;;;35.38;23.63;;;;;;;21.38;41.24;100373.34;5051419;28;20048;-43
2022/11/09 10:26:46;;;;;;;34.85;24.02;;;;;;;21.38;41.18;100372.53;5051704;28;20056;-44
2022/11/09 10:29:23;;;;;;;37.50;24.38;;;;;;;21.96;39.95;100376.16;5051558;28;20032;-43
2022/11/09 10:31:51;;;;;;;39.30;25.45;;;;;;;21.65;40.45;100367.06;5051692;28;20100;-44
2022/11/09 10:34:41;;;;;;;38.77;24.83;;;;;;;21.90;39.88;100374.50;5051258;28;20389;-43
2022/11/09 10:37:17;;;;;;;37.75;24.60;;;;;;;21.66;40.24;100366.78;5059283;28;20036;-43
2022/11/09 10:39:53;;;;;;;37.70;24.35;;;;;;;20.61;42.30;100367.28;5051048;28;20032;-44
2022/11/09 10:42:18;;;;;;;37.67;25.52;;;;;;;20.08;43.60;100364.22;5051493;28;20056;-43
2022/11/09 10:44:44;;;;;;;45.67;25.95;;;;;;;19.58;45.20;100359.75;5051182;28;20021;-43
2022/11/09 10:47:12;;;;;;;41.60;25.40;;;;;;;19.98;44.25;100358.69;5051424;28;20100;-44
2022/11/09 10:49:39;;;;;;;37.95;25.02;;;;;;;20.66;42.75;100353.00;5051109;28;20483;-44
2022/11/09 10:52:25;;;;;;;38.30;24.75;;;;;;;21.10;41.92;100358.25;5050998;28;20500;-42
2022/11/09 10:54:51;;;;;;;37.58;25.17;;;;;;;21.00;41.85;100353.59;5050556;28;20127;-41
2022/11/09 10:57:22;;;;;;;38.70;24.15;;;;;;;20.89;42.20;100354.56;5051007;28;20452;-44
2022/11/09 10:59:56;;;;;;;33.00;22.90;;;;;;;20.73;42.50;100347.38;5030785;28;20050;-42
2022/11/09 11:02:24;;;;;;;35.05;21.40;;;;;;;20.38;42.77;100345.91;5034229;28;20513;-44
2022/11/09 11:04:51;;;;;;;30.40;20.88;;;;;;;19.97;43.73;100348.13;5050868;28;20029;-44
2022/11/09 11:07:21;;;;;;;29.33;20.38;;;;;;;20.34;43.12;100345.59;5051112;28;20017;-42
2022/11/09 11:09:46;;;;;;;34.03;21.08;;;;;;;21.03;41.86;100336.81;5050591;28;20025;-43
2022/11/09 11:12:15;;;;;;;30.80;21.38;;;;;;;21.56;40.66;100330.72;5049189;28;20025;-43
2022/11/09 11:14:44;;;;;;;28.83;20.00;;;;;;;21.04;41.50;100327.63;5050485;28;20032;-42